Time,TemperatureF,DewpointF,PressureIn,WindDirection,WindDirectionDegrees,WindSpeedMPH,WindSpeedGustMPH,Humidity,HourlyPrecipIn,Conditions,Clouds,dailyrainin,SoftwareType,DateUTC
2013-03-02 00:01:00,15.0,12.0,-100.00,North,350,2.0,2.0,87,0.00,,,0.00,,2013-03-02 06:01:00,
2013-03-02 00:11:00,15.0,12.0,-100.00,North,0,1.0,2.0,87,0.00,,,0.00,,2013-03-02 06:11:00,
2013-03-02 00:21:00,14.0,10.0,-100.00,NE,40,3.0,3.0,87,0.00,,,0.00,,2013-03-02 06:21:00,
2013-03-02 00:31:00,13.0,10.0,-100.00,NE,35,2.0,4.0,87,0.00,,,0.00,,2013-03-02 06:31:00,
2013-03-02 00:41:00,13.0,10.0,-100.00,NE,45,2.0,3.0,88,0.00,,,0.00,,2013-03-02 06:41:00,
2013-03-02 00:51:00,13.0,10.0,-100.00,East,85,3.0,4.0,89,0.00,,,0.00,,2013-03-02 06:51:00,
2013-03-02 01:01:00,13.0,10.0,-100.00,East,90,3.0,6.0,89,0.00,,,0.00,,2013-03-02 07:01:00,
2013-03-02 01:11:00,14.0,10.0,-100.00,East,90,3.0,4.0,90,0.00,,,0.00,,2013-03-02 07:11:00,
2013-03-02 01:21:00,13.0,10.0,-100.00,East,95,3.0,4.0,90,0.00,,,0.00,,2013-03-02 07:21:00,
2013-03-02 01:32:00,13.0,10.0,-100.00,East,80,2.0,3.0,90,0.00,,,0.00,,2013-03-02 07:32:00,
2013-03-02 01:42:00,13.0,10.0,-100.00,East,100,1.0,3.0,90,0.00,,,0.00,,2013-03-02 07:42:00,
2013-03-02 01:51:00,13.0,10.0,-100.00,East,90,1.0,2.0,90,0.00,,,0.00,,2013-03-02 07:51:00,
2013-03-02 02:01:00,12.0,10.0,-100.00,NE,45,0.0,1.0,90,0.00,,,0.00,,2013-03-02 08:01:00,
2013-03-02 02:11:00,13.0,10.0,-100.00,ENE,65,0.0,0.0,90,0.00,,,0.00,,2013-03-02 08:11:00,
2013-03-02 02:21:00,13.0,10.0,-100.00,SSE,150,0.0,1.0,90,0.00,,,0.00,,2013-03-02 08:21:00,
2013-03-02 02:32:00,12.0,10.0,-100.00,South,175,1.0,1.0,90,0.00,,,0.00,,2013-03-02 08:32:00,
2013-03-02 02:42:00,11.0,9.0,-100.00,SE,135,1.0,1.0,90,0.00,,,0.00,,2013-03-02 08:42:00,
2013-03-02 02:52:00,11.0,9.0,-100.00,ESE,120,0.0,1.0,90,0.00,,,0.00,,2013-03-02 08:52:00,
2013-03-02 03:01:00,11.0,9.0,-100.00,South,170,2.0,4.0,90,0.00,,,0.00,,2013-03-02 09:01:00,
2013-03-02 03:11:00,10.0,9.0,-100.00,SE,140,6.0,6.0,90,0.00,,,0.00,,2013-03-02 09:11:00,
2013-03-02 03:21:00,12.0,9.0,-100.00,SE,135,4.0,5.0,90,0.00,,,0.00,,2013-03-02 09:21:00,
2013-03-02 03:32:00,12.0,10.0,-100.00,SE,135,4.0,5.0,90,0.00,,,0.00,,2013-03-02 09:32:00,
2013-03-02 03:42:00,11.0,9.0,-100.00,SE,145,5.0,6.0,88,0.00,,,0.00,,2013-03-02 09:42:00,
2013-03-02 03:51:00,11.0,9.0,-100.00,SE,145,4.0,5.0,87,0.00,,,0.00,,2013-03-02 09:51:00,
2013-03-02 04:01:00,11.0,7.0,-100.00,SE,145,5.0,6.0,86,0.00,,,0.00,,2013-03-02 10:01:00,
2013-03-02 04:15:00,10.0,7.0,-100.00,SSE,150,4.0,6.0,85,0.00,,,0.00,,2013-03-02 10:15:00,
2013-03-02 04:21:00,10.0,7.0,-100.00,SSE,150,4.0,6.0,85,0.00,,,0.00,,2013-03-02 10:21:00,
2013-03-02 04:32:00,10.0,7.0,-100.00,SSE,150,5.0,6.0,85,0.00,,,0.00,,2013-03-02 10:32:00,
2013-03-02 04:42:00,10.0,7.0,-100.00,SE,145,6.0,6.0,83,0.00,,,0.00,,2013-03-02 10:42:00,
2013-03-02 04:51:00,10.0,5.0,-100.00,SSE,150,4.0,6.0,81,0.00,,,0.00,,2013-03-02 10:51:00,
2013-03-02 05:01:00,9.0,5.0,-100.00,SSE,160,4.0,5.0,81,0.00,,,0.00,,2013-03-02 11:01:00,
2013-03-02 05:11:00,9.0,5.0,-100.00,SSE,155,4.0,4.0,81,0.00,,,0.00,,2013-03-02 11:11:00,
2013-03-02 05:21:00,9.0,5.0,-100.00,SSE,150,4.0,6.0,81,0.00,,,0.00,,2013-03-02 11:21:00,
2013-03-02 05:32:00,9.0,5.0,-100.00,SE,145,6.0,6.0,81,0.00,,,0.00,,2013-03-02 11:32:00,
2013-03-02 05:41:00,9.0,3.0,-100.00,SSE,155,6.0,6.0,80,0.00,,,0.00,,2013-03-02 11:41:00,
2013-03-02 05:52:00,8.0,3.0,-100.00,SSE,160,6.0,7.0,80,0.00,,,0.00,,2013-03-02 11:52:00,
2013-03-02 06:02:00,8.0,3.0,-100.00,SSE,160,6.0,6.0,80,0.00,,,0.00,,2013-03-02 12:02:00,
2013-03-02 06:11:00,8.0,3.0,-100.00,SSE,160,6.0,6.0,80,0.00,,,0.00,,2013-03-02 12:11:00,
2013-03-02 06:21:00,8.0,3.0,-100.00,SSE,160,6.0,6.0,80,0.00,,,0.00,,2013-03-02 12:21:00,
2013-03-02 06:32:00,8.0,3.0,-100.00,SSE,155,6.0,6.0,79,0.00,,,0.00,,2013-03-02 12:32:00,
2013-03-02 06:43:00,9.0,3.0,-100.00,SSE,150,5.0,6.0,78,0.00,,,0.00,,2013-03-02 12:43:00,
2013-03-02 06:53:00,9.0,3.0,-100.00,SE,145,6.0,6.0,77,0.00,,,0.00,,2013-03-02 12:53:00,
2013-03-02 07:01:00,8.0,1.0,-100.00,SE,140,4.0,6.0,76,0.00,,,0.00,,2013-03-02 13:01:00,
2013-03-02 07:11:00,7.0,1.0,-100.00,SE,140,4.0,5.0,77,0.00,,,0.00,,2013-03-02 13:11:00,
2013-03-02 07:21:00,9.0,3.0,-100.00,SE,145,4.0,6.0,77,0.00,,,0.00,,2013-03-02 13:21:00,
2013-03-02 07:32:00,9.0,3.0,-100.00,SSE,150,4.0,5.0,77,0.00,,,0.00,,2013-03-02 13:32:00,
2013-03-02 07:41:00,9.0,3.0,-100.00,SSE,160,4.0,5.0,77,0.00,,,0.00,,2013-03-02 13:41:00,
2013-03-02 07:52:00,9.0,3.0,-100.00,South,170,5.0,6.0,76,0.00,,,0.00,,2013-03-02 13:52:00,
2013-03-02 08:01:00,9.0,3.0,-100.00,SSE,160,6.0,7.0,76,0.00,,,0.00,,2013-03-02 14:01:00,
2013-03-02 08:11:00,10.0,3.0,-100.00,SSE,155,6.0,7.0,76,0.00,,,0.00,,2013-03-02 14:11:00,
2013-03-02 08:21:00,10.0,3.0,-100.00,SSE,155,6.0,7.0,75,0.00,,,0.00,,2013-03-02 14:21:00,
2013-03-02 08:32:00,11.0,3.0,-100.00,SSE,160,7.0,7.0,74,0.00,,,0.00,,2013-03-02 14:32:00,
2013-03-02 08:42:00,11.0,5.0,-100.00,SSE,150,6.0,7.0,74,0.00,,,0.00,,2013-03-02 14:42:00,
2013-03-02 08:52:00,13.0,5.0,-100.00,SSE,155,6.0,6.0,73,0.00,,,0.00,,2013-03-02 14:52:00,
2013-03-02 09:02:00,13.0,5.0,-100.00,SSE,165,5.0,6.0,71,0.00,,,0.00,,2013-03-02 15:02:00,
2013-03-02 09:11:00,13.0,7.0,-100.00,SSE,160,4.0,6.0,71,0.00,,,0.00,,2013-03-02 15:11:00,
2013-03-02 09:21:00,14.0,7.0,-100.00,SSE,155,6.0,6.0,71,0.00,,,0.00,,2013-03-02 15:21:00,
2013-03-02 09:32:00,14.0,7.0,-100.00,South,170,6.0,7.0,72,0.00,,,0.00,,2013-03-02 15:32:00,
2013-03-02 09:41:00,15.0,9.0,-100.00,SSE,155,4.0,6.0,73,0.00,,,0.00,,2013-03-02 15:41:00,
2013-03-02 09:52:00,16.0,9.0,-100.00,SE,145,5.0,6.0,74,0.00,,,0.00,,2013-03-02 15:52:00,
2013-03-02 10:01:00,17.0,10.0,-100.00,SSE,150,6.0,7.0,74,0.00,,,0.00,,2013-03-02 16:01:00,
2013-03-02 10:11:00,16.0,9.0,-100.00,SSE,155,7.0,9.0,74,0.00,,,0.00,,2013-03-02 16:11:00,
2013-03-02 10:21:00,17.0,10.0,-100.00,SSE,155,6.0,9.0,75,0.00,,,0.00,,2013-03-02 16:21:00,
2013-03-02 10:31:00,18.0,10.0,-100.00,SE,145,6.0,9.0,75,0.00,,,0.00,,2013-03-02 16:31:00,
2013-03-02 10:41:00,19.0,12.0,-100.00,SSE,150,6.0,7.0,73,0.00,,,0.00,,2013-03-02 16:41:00,
2013-03-02 10:51:00,18.0,10.0,-100.00,SE,145,7.0,9.0,73,0.00,,,0.00,,2013-03-02 16:51:00,
2013-03-02 11:01:00,18.0,10.0,-100.00,SE,145,7.0,9.0,73,0.00,,,0.00,,2013-03-02 17:01:00,
2013-03-02 11:11:00,19.0,12.0,-100.00,SE,145,7.0,9.0,73,0.00,,,0.00,,2013-03-02 17:11:00,
2013-03-02 11:21:00,19.0,12.0,-100.00,SE,140,7.0,9.0,72,0.00,,,0.00,,2013-03-02 17:21:00,
2013-03-02 11:32:00,18.0,10.0,-100.00,SE,145,9.0,11.0,72,0.00,,,0.00,,2013-03-02 17:32:00,
2013-03-02 11:42:00,19.0,12.0,-100.00,SSE,150,7.0,10.0,72,0.00,,,0.00,,2013-03-02 17:42:00,
2013-03-02 11:52:00,20.0,12.0,-100.00,SE,145,6.0,9.0,70,0.00,,,0.00,,2013-03-02 17:52:00,
2013-03-02 12:02:00,21.0,12.0,-100.00,SSE,150,6.0,7.0,69,0.00,,,0.00,,2013-03-02 18:02:00,
2013-03-02 12:11:00,21.0,12.0,-100.00,SSE,150,7.0,9.0,68,0.00,,,0.00,,2013-03-02 18:11:00,
2013-03-02 12:22:00,22.0,14.0,-100.00,SSE,165,6.0,7.0,66,0.00,,,0.00,,2013-03-02 18:22:00,
2013-03-02 12:32:00,21.0,10.0,-100.00,South,180,9.0,11.0,61,0.00,,,0.00,,2013-03-02 18:32:00,
2013-03-02 12:42:00,22.0,10.0,-100.00,South,180,6.0,9.0,60,0.00,,,0.00,,2013-03-02 18:42:00,
2013-03-02 12:51:00,22.0,10.0,-100.00,SSE,165,7.0,9.0,60,0.00,,,0.00,,2013-03-02 18:51:00,
2013-03-02 13:01:00,22.0,10.0,-100.00,South,170,9.0,10.0,60,0.00,,,0.00,,2013-03-02 19:01:00,
2013-03-02 13:11:00,22.0,10.0,-100.00,South,175,9.0,10.0,59,0.00,,,0.00,,2013-03-02 19:11:00,
2013-03-02 13:21:00,23.0,10.0,-100.00,South,180,9.0,9.0,59,0.00,,,0.00,,2013-03-02 19:21:00,
2013-03-02 13:32:00,23.0,10.0,-100.00,South,180,9.0,12.0,58,0.00,,,0.00,,2013-03-02 19:32:00,
2013-03-02 13:42:00,23.0,10.0,-100.00,South,175,9.0,11.0,57,0.00,,,0.00,,2013-03-02 19:42:00,
2013-03-02 13:52:00,23.0,9.0,-100.00,SSE,165,8.0,12.0,55,0.00,,,0.00,,2013-03-02 19:52:00,
2013-03-02 14:01:00,23.0,9.0,-100.00,SSE,160,9.0,11.0,55,0.00,,,0.00,,2013-03-02 20:01:00,
2013-03-02 14:11:00,23.0,9.0,-100.00,South,180,10.0,12.0,53,0.00,,,0.00,,2013-03-02 20:11:00,
2013-03-02 14:21:00,23.0,9.0,-100.00,South,175,9.0,12.0,52,0.00,,,0.00,,2013-03-02 20:21:00,
2013-03-02 14:32:00,23.0,9.0,-100.00,South,170,7.0,11.0,53,0.00,,,0.00,,2013-03-02 20:32:00,
2013-03-02 14:42:00,23.0,9.0,-100.00,South,170,12.0,13.0,52,0.00,,,0.00,,2013-03-02 20:42:00,
2013-03-02 14:52:00,24.0,10.0,-100.00,SE,145,9.0,12.0,57,0.00,,,0.00,,2013-03-02 20:52:00,
2013-03-02 15:02:00,24.0,12.0,-100.00,SE,145,9.0,12.0,59,0.00,,,0.00,,2013-03-02 21:02:00,
2013-03-02 15:11:00,24.0,12.0,-100.00,SSE,150,7.0,11.0,59,0.00,,,0.00,,2013-03-02 21:11:00,
2013-03-02 15:22:00,24.0,12.0,-100.00,SE,140,9.0,11.0,61,0.00,,,0.00,,2013-03-02 21:22:00,
2013-03-02 15:32:00,24.0,12.0,-100.00,SE,145,9.0,11.0,63,0.00,,,0.00,,2013-03-02 21:32:00,
2013-03-02 15:42:00,23.0,12.0,-100.00,SSE,150,9.0,12.0,64,0.00,,,0.00,,2013-03-02 21:42:00,
2013-03-02 15:52:00,24.0,14.0,-100.00,SE,140,9.0,11.0,65,0.00,,,0.00,,2013-03-02 21:52:00,
2013-03-02 16:02:00,23.0,14.0,-100.00,SE,135,10.0,12.0,65,0.00,,,0.00,,2013-03-02 22:02:00,
2013-03-02 16:11:00,23.0,14.0,-100.00,SE,135,11.0,13.0,65,0.00,,,0.00,,2013-03-02 22:11:00,
2013-03-02 16:21:00,23.0,14.0,-100.00,SE,140,10.0,12.0,67,0.00,,,0.00,,2013-03-02 22:21:00,
2013-03-02 16:32:00,22.0,14.0,-100.00,SE,145,12.0,13.0,67,0.00,,,0.00,,2013-03-02 22:32:00,
2013-03-02 16:42:00,23.0,14.0,-100.00,SE,145,9.0,13.0,67,0.00,,,0.00,,2013-03-02 22:42:00,
2013-03-02 16:51:00,22.0,14.0,-100.00,SSE,150,10.0,12.0,68,0.00,,,0.00,,2013-03-02 22:51:00,
2013-03-02 17:01:00,22.0,14.0,-100.00,SE,140,9.0,12.0,68,0.00,,,0.00,,2013-03-02 23:01:00,
2013-03-02 17:11:00,22.0,14.0,-100.00,SSE,150,8.0,12.0,68,0.00,,,0.00,,2013-03-02 23:11:00,
2013-03-02 17:21:00,22.0,12.0,-100.00,SE,135,11.0,12.0,67,0.00,,,0.00,,2013-03-02 23:21:00,
2013-03-02 17:32:00,22.0,12.0,-100.00,SE,135,9.0,12.0,64,0.00,,,0.00,,2013-03-02 23:32:00,
2013-03-02 17:42:00,22.0,10.0,-100.00,SE,135,11.0,14.0,62,0.00,,,0.00,,2013-03-02 23:42:00,
2013-03-02 17:52:00,22.0,10.0,-100.00,SE,145,10.0,13.0,63,0.00,,,0.00,,2013-03-02 23:52:00,
2013-03-02 18:02:00,22.0,12.0,-100.00,SE,140,9.0,13.0,63,0.00,,,0.00,,2013-03-03 00:02:00,
2013-03-02 18:11:00,22.0,12.0,-100.00,SE,145,9.0,12.0,64,0.00,,,0.00,,2013-03-03 00:11:00,
2013-03-02 18:22:00,21.0,12.0,-100.00,SE,145,10.0,12.0,66,0.00,,,0.00,,2013-03-03 00:22:00,
2013-03-02 18:32:00,21.0,12.0,-100.00,SE,145,9.0,13.0,68,0.00,,,0.00,,2013-03-03 00:32:00,
2013-03-02 18:42:00,21.0,12.0,-100.00,SSE,150,9.0,14.0,69,0.00,,,0.00,,2013-03-03 00:42:00,
2013-03-02 18:52:00,21.0,14.0,-100.00,SE,145,12.0,14.0,71,0.00,,,0.00,,2013-03-03 00:52:00,
2013-03-02 19:01:00,22.0,14.0,-100.00,SE,130,9.0,14.0,70,0.00,,,0.00,,2013-03-03 01:01:00,
2013-03-02 19:11:00,22.0,12.0,-100.00,SE,125,12.0,14.0,69,0.00,,,0.00,,2013-03-03 01:11:00,
2013-03-02 19:21:00,22.0,12.0,-100.00,SE,130,9.0,12.0,68,0.00,,,0.00,,2013-03-03 01:21:00,
2013-03-02 19:31:00,22.0,12.0,-100.00,SE,135,8.0,13.0,68,0.00,,,0.00,,2013-03-03 01:31:00,
2013-03-02 19:41:00,21.0,12.0,-100.00,SE,145,10.0,13.0,69,0.00,,,0.00,,2013-03-03 01:41:00,
2013-03-02 19:52:00,22.0,14.0,-100.00,SE,140,8.0,11.0,70,0.00,,,0.00,,2013-03-03 01:52:00,
2013-03-02 20:01:00,21.0,14.0,-100.00,SSE,150,9.0,12.0,71,0.00,,,0.00,,2013-03-03 02:01:00,
2013-03-02 20:11:00,21.0,14.0,-100.00,SSE,160,8.0,11.0,72,0.00,,,0.00,,2013-03-03 02:11:00,
2013-03-02 20:21:00,21.0,14.0,-100.00,SSE,165,9.0,11.0,71,0.00,,,0.00,,2013-03-03 02:21:00,
2013-03-02 20:32:00,21.0,12.0,-100.00,South,175,10.0,12.0,68,0.00,,,0.00,,2013-03-03 02:32:00,
2013-03-02 20:41:00,21.0,12.0,-100.00,South,180,11.0,13.0,69,0.00,,,0.00,,2013-03-03 02:41:00,
2013-03-02 20:52:00,21.0,12.0,-100.00,SSE,160,8.0,13.0,69,0.00,,,0.00,,2013-03-03 02:52:00,
2013-03-02 21:01:00,21.0,12.0,-100.00,SSE,155,9.0,11.0,69,0.00,,,0.00,,2013-03-03 03:01:00,
2013-03-02 21:11:00,21.0,12.0,-100.00,SSE,150,7.0,10.0,69,0.00,,,0.00,,2013-03-03 03:11:00,
2013-03-02 21:21:00,21.0,12.0,-100.00,SE,145,9.0,12.0,70,0.00,,,0.00,,2013-03-03 03:21:00,
2013-03-02 21:31:00,21.0,12.0,-100.00,SE,130,9.0,12.0,70,0.00,,,0.00,,2013-03-03 03:31:00,
2013-03-02 21:41:00,21.0,12.0,-100.00,SE,135,9.0,12.0,70,0.00,,,0.00,,2013-03-03 03:41:00,
2013-03-02 21:51:00,21.0,14.0,-100.00,SE,125,10.0,13.0,71,0.00,,,0.00,,2013-03-03 03:51:00,
2013-03-02 22:01:00,21.0,14.0,-100.00,SE,135,11.0,14.0,71,0.00,,,0.00,,2013-03-03 04:01:00,
2013-03-02 22:11:00,21.0,14.0,-100.00,SE,140,10.0,14.0,71,0.00,,,0.00,,2013-03-03 04:11:00,
2013-03-02 22:21:00,21.0,12.0,-100.00,SE,145,11.0,13.0,71,0.00,,,0.00,,2013-03-03 04:21:00,
2013-03-02 22:31:00,21.0,12.0,-100.00,SE,135,11.0,13.0,71,0.00,,,0.00,,2013-03-03 04:31:00,
2013-03-02 22:41:00,20.0,12.0,-100.00,SE,145,10.0,14.0,72,0.00,,,0.00,,2013-03-03 04:41:00,
2013-03-02 22:51:00,20.0,12.0,-100.00,SSE,150,10.0,14.0,72,0.00,,,0.00,,2013-03-03 04:51:00,
2013-03-02 23:02:00,20.0,12.0,-100.00,SSE,155,10.0,12.0,72,0.00,,,0.00,,2013-03-03 05:02:00,
2013-03-02 23:11:00,20.0,12.0,-100.00,SSE,155,12.0,14.0,73,0.00,,,0.00,,2013-03-03 05:11:00,
2013-03-02 23:22:00,20.0,12.0,-100.00,SSE,160,12.0,14.0,72,0.00,,,0.00,,2013-03-03 05:22:00,
2013-03-02 23:32:00,20.0,12.0,-100.00,SSE,160,12.0,16.0,73,0.00,,,0.00,,2013-03-03 05:32:00,
2013-03-02 23:42:00,20.0,12.0,-100.00,SSE,160,11.0,14.0,73,0.00,,,0.00,,2013-03-03 05:42:00,
2013-03-02 23:52:00,20.0,12.0,-100.00,SSE,165,9.0,13.0,73,0.00,,,0.00,,2013-03-03 05:52:00,